S/y Surama — ZGEI9 — position and weather

sailwx.info

Track history (hours):
 
Tides and Currents Weather Stations Pressure Air Temp Water Temp Dewpoint Dewpoint Depression Visibility Wind Speed Wind Dir Waves Ship Positions

S/y Surama

Last reported at 2018-May-21 19:24 UTC. Time now 2018-May-22 18:01 UTC.
Position N 41°24' E 002°14'.

Length 40 m; draft 3 m.

Type: Sailing vessel. MMSI: 319073400.

Date/timePositionNaut miles runAvg speedWind from/ knotsBaromVisibWave heightAir tempDewpointWater temp
2018-May-21 19:24N 41°24' E 002°14'4 9.3
2018-May-21 19:00N 41°21' E 002°14'510.0
2018-May-21 18:30N 41°17' E 002°10'510.8
2018-May-21 18:00N 41°15' E 002°03'510.7
2018-May-21 17:30N 41°15' E 001°56'1 1.9
2018-May-21 16:46N 41°15' E 001°54'0 0.0
2018-May-21 16:23N 41°15' E 001°54'0 0.0
2018-May-21 15:57N 41°15' E 001°54'0 0.0
2018-May-21 15:28N 41°15' E 001°54'0 0.0
2018-May-21 14:49N 41°15' E 001°54'0 0.0
2018-May-21 14:28N 41°15' E 001°54'0 0.0
2018-May-21 13:52N 41°15' E 001°54'0 0.0
2018-May-21 13:25N 41°15' E 001°54'0 0.0
2018-May-21 07:39N 41°15' E 001°54'0 0.0
2018-May-21 07:27N 41°15' E 001°54'0 0.0
2018-May-21 06:57N 41°15' E 001°54'0 0.0
2018-May-21 06:29N 41°15' E 001°54'0 0.0
2018-May-21 05:01N 41°15' E 001°54'0 0.1
2018-May-21 04:54N 41°15' E 001°54'0 0.0
2018-May-21 03:52N 41°15' E 001°54'0 0.0
2018-May-21 03:17N 41°15' E 001°54'0 0.0
2018-May-21 02:51N 41°15' E 001°54'0 0.0
2018-May-21 02:27N 41°15' E 001°54'0 0.0
2018-May-21 01:57N 41°15' E 001°54'0 0.0
2018-May-21 01:14N 41°15' E 001°54'0 0.0
2018-May-21 00:59N 41°15' E 001°54'0 0.0
2018-May-21 00:27N 41°15' E 001°54'0 0.0
2018-May-21 00:00N 41°15' E 001°54'0 0.0
2018-May-20 23:30N 41°15' E 001°54'0 0.0
2018-May-20 22:57N 41°15' E 001°54'0 0.0
2018-May-20 22:27N 41°15' E 001°54'0 0.0
2018-May-20 21:53N 41°15' E 001°54'0 0.0
2018-May-20 21:28N 41°15' E 001°54'0 0.0
2018-May-20 20:58N 41°15' E 001°54'0 0.0
2018-May-20 20:28N 41°15' E 001°54'0 0.0
2018-May-20 19:58N 41°15' E 001°54'0 0.0
2018-May-20 19:19N 41°15' E 001°54'0 0.0
2018-May-20 18:54N 41°15' E 001°54'0 0.0
2018-May-20 18:28N 41°15' E 001°54'0 0.0
2018-May-20 17:53N 41°15' E 001°54'0 0.0
2018-May-20 17:25N 41°15' E 001°54'0 0.0
2018-May-20 16:55N 41°15' E 001°54'0 0.0
2018-May-20 16:09N 41°15' E 001°54'0 0.1
2018-May-20 15:57N 41°15' E 001°54'0 0.0
2018-May-20 15:30N 41°15' E 001°54'0 0.0
2018-May-20 10:35N 41°15' E 001°55'0 3.9
2018-May-20 10:30N 41°15' E 001°55'4 7.5
2018-May-20 10:00N 41°14' E 001°60'4 8.8
2018-May-20 09:30N 41°15' E 002°06'1 2.3
2018-May-20 09:00N 41°15' E 002°07'0 0.2
2018-May-20 08:30N 41°14' E 002°07'1 1.5
2018-May-20 08:00N 41°14' E 002°08'1 2.7
2018-May-20 07:30N 41°14' E 002°10'2 3.6
2018-May-20 07:00N 41°12' E 002°11'2 4.1
2018-May-20 06:30N 41°10' E 002°12'2 4.7
2018-May-20 06:00N 41°08' E 002°13'4 7.6
2018-May-20 05:28N 41°05' E 002°16'97 9.8
2018-May-19 19:34N 39°28' E 002°26'210.7
2018-May-19 19:20N 39°27' E 002°29'310.0
2018-May-19 19:00N 39°28' E 002°33'510.3
2018-May-19 18:30N 39°32' E 002°38'2 3.6
2018-May-19 17:58N 39°34' E 002°38'0 0.0
2018-May-19 17:30N 39°34' E 002°38'0 0.0
2018-May-19 17:00N 39°34' E 002°38'0 0.6
2018-May-19 16:28N 39°34' E 002°38'0 0.0
2018-May-19 15:58N 39°34' E 002°38'0 0.0
2018-May-19 15:29N 39°34' E 002°38'0 0.0
2018-May-19 14:58N 39°34' E 002°38'0 0.0
2018-May-19 14:28N 39°34' E 002°38'0 0.0
2018-May-19 13:58N 39°34' E 002°38'0 0.0
2018-May-19 13:29N 39°34' E 002°38'0 0.0
2018-May-19 12:59N 39°34' E 002°38'0 0.0
2018-May-19 12:28N 39°34' E 002°38'0 0.0
2018-May-19 11:58N 39°34' E 002°38'0 0.0
2018-May-19 11:29N 39°34' E 002°38'0 0.0
2018-May-19 10:59N 39°34' E 002°38'0 0.0
2018-May-19 10:30N 39°34' E 002°38'0 0.0
2018-May-19 10:00N 39°34' E 002°38'0 0.0
2018-May-19 09:30N 39°34' E 002°38'0 0.0
2018-May-19 09:00N 39°34' E 002°38'0 0.0
2018-May-19 08:29N 39°34' E 002°38'0 0.0
2018-May-19 08:00N 39°34' E 002°38'0 0.0
2018-May-19 07:30N 39°34' E 002°38'0 0.0
2018-May-19 07:00N 39°34' E 002°38'0 0.0
2018-May-19 06:29N 39°34' E 002°38'0 0.0
2018-May-19 05:59N 39°34' E 002°38'0 0.0
2018-May-19 05:29N 39°34' E 002°38'0 0.0
2018-May-19 04:59N 39°34' E 002°38'0 0.0
2018-May-19 04:29N 39°34' E 002°38'0 0.0
2018-May-19 03:59N 39°34' E 002°38'0 0.0
2018-May-19 03:24N 39°34' E 002°38'0 0.0
2018-May-19 02:58N 39°34' E 002°38'0 0.0
2018-May-19 02:30N 39°34' E 002°38'0 0.0
2018-May-19 01:58N 39°34' E 002°38'0 0.0
2018-May-19 01:27N 39°34' E 002°38'0 0.0
2018-May-19 00:59N 39°34' E 002°38'0 0.0
2018-May-19 00:29N 39°34' E 002°38'0 0.0
2018-May-18 23:58N 39°34' E 002°38'0 0.0
2018-May-18 23:28N 39°34' E 002°38'0 0.0
2018-May-18 22:58N 39°34' E 002°38'0 0.0
2018-May-18 22:28N 39°34' E 002°38'0 0.0
2018-May-18 21:58N 39°34' E 002°38'0 0.0
2018-May-18 21:30N 39°34' E 002°38'0 0.0
2018-May-18 20:58N 39°34' E 002°38'0 0.0
2018-May-18 20:28N 39°34' E 002°38'0 0.0
2018-May-18 19:59N 39°34' E 002°38'0 0.0
2018-May-18 19:23N 39°34' E 002°38'0 0.0
2018-May-18 18:59N 39°34' E 002°38'0 0.0
2018-May-18 18:29N 39°34' E 002°38'0 0.0
2018-May-18 17:55N 39°34' E 002°38'0 0.0
2018-May-18 17:28N 39°34' E 002°38'0 0.0
2018-May-18 16:58N 39°34' E 002°38'0 0.0
2018-May-18 16:28N 39°34' E 002°38'0 0.0
2018-May-18 15:58N 39°34' E 002°38'0 0.0
2018-May-18 15:23N 39°34' E 002°38'0 0.0
2018-May-18 14:54N 39°34' E 002°38'0 0.0
2018-May-18 14:30N 39°34' E 002°38'0 0.0
2018-May-18 14:00N 39°34' E 002°38'0 0.0
2018-May-18 13:29N 39°34' E 002°38'0 0.0
2018-May-18 12:59N 39°34' E 002°38'0 0.0
2018-May-18 12:27N 39°34' E 002°38'0 0.0
2018-May-18 11:58N 39°34' E 002°38'0 0.0
2018-May-18 11:30N 39°34' E 002°38'0 0.0
2018-May-18 10:59N 39°34' E 002°38'0 0.0
2018-May-18 10:28N 39°34' E 002°38'0 0.0
2018-May-18 09:57N 39°34' E 002°38'0 0.0
2018-May-18 09:30N 39°34' E 002°38'0 0.0
2018-May-18 09:00N 39°34' E 002°38'0 0.0
2018-May-18 08:30N 39°34' E 002°38'0 0.0
2018-May-18 07:58N 39°34' E 002°38'0 0.0
2018-May-18 07:28N 39°34' E 002°38'0 0.0
2018-May-18 06:58N 39°34' E 002°38'0 0.0
2018-May-18 06:29N 39°34' E 002°38'0 0.0
2018-May-18 05:59N 39°34' E 002°38'0 0.0
2018-May-18 05:28N 39°34' E 002°38'0 0.0
2018-May-18 04:53N 39°34' E 002°38'0 0.0
2018-May-18 04:27N 39°34' E 002°38'0 0.0
2018-May-18 04:00N 39°34' E 002°38'0 0.0
2018-May-18 03:25N 39°34' E 002°38'0 0.0
2018-May-18 02:58N 39°34' E 002°38'0 0.0
2018-May-18 02:29N 39°34' E 002°38'0 0.0
2018-May-18 02:00N 39°34' E 002°38'0 0.0
2018-May-18 01:30N 39°34' E 002°38'0 0.0
2018-May-18 01:00N 39°34' E 002°38'0 0.0
2018-May-18 00:30N 39°34' E 002°38'0 0.0
2018-May-17 23:57N 39°34' E 002°38'0 0.0
2018-May-17 23:30N 39°34' E 002°38'0 0.0
2018-May-17 23:00N 39°34' E 002°38'0 0.0
2018-May-17 22:28N 39°34' E 002°38'0 0.0
2018-May-17 22:00N 39°34' E 002°38'0 0.0
2018-May-17 21:28N 39°34' E 002°38'0 0.0
2018-May-17 20:59N 39°34' E 002°38'0 0.0
2018-May-17 20:30N 39°34' E 002°38'0 0.0
2018-May-17 19:58N 39°34' E 002°38'0 0.0
2018-May-17 19:28N 39°34' E 002°38'0 0.0
2018-May-17 18:58N 39°34' E 002°38'0 0.0
2018-May-17 18:29N 39°34' E 002°38'0 0.0
2018-May-17 17:57N 39°34' E 002°38'0 0.0
2018-May-17 17:30N 39°34' E 002°38'0 0.0
2018-May-17 16:58N 39°34' E 002°38'0 0.0
2018-May-17 16:30N 39°34' E 002°38'0 0.0
2018-May-17 16:00N 39°34' E 002°38'0 0.0
2018-May-17 15:29N 39°34' E 002°38'0 0.0
2018-May-17 14:54N 39°34' E 002°38'0 0.0
2018-May-17 14:28N 39°34' E 002°38'0 0.0
2018-May-17 13:58N 39°34' E 002°38'0 0.0
2018-May-17 13:26N 39°34' E 002°38'0 0.0
2018-May-17 12:59N 39°34' E 002°38'0 0.0
2018-May-17 12:29N 39°34' E 002°38'0 0.0
2018-May-17 11:59N 39°34' E 002°38'0 0.0
2018-May-17 11:29N 39°34' E 002°38'0 0.0
2018-May-17 10:59N 39°34' E 002°38'0 0.0
2018-May-17 10:28N 39°34' E 002°38'0 0.0
2018-May-17 09:53N 39°34' E 002°38'0 0.0
2018-May-17 09:26N 39°34' E 002°38'0 0.0
2018-May-17 08:58N 39°34' E 002°38'0 0.0
2018-May-17 08:20N 39°34' E 002°38'0 0.0
2018-May-17 07:55N 39°34' E 002°38'0 0.0
2018-May-17 07:28N 39°34' E 002°38'0 0.0
2018-May-17 07:00N 39°34' E 002°38'0 0.0
2018-May-17 06:28N 39°34' E 002°38'0 0.0
2018-May-17 05:58N 39°34' E 002°38'0 0.0
2018-May-17 05:29N 39°34' E 002°38'0 0.0
2018-May-17 04:59N 39°34' E 002°38'0 0.0
2018-May-17 04:29N 39°34' E 002°38'0 0.0
2018-May-17 03:58N 39°34' E 002°38'0 0.0
2018-May-17 03:30N 39°34' E 002°38'0 0.0
2018-May-17 03:00N 39°34' E 002°38'0 0.0
2018-May-17 02:29N 39°34' E 002°38'0 0.0
2018-May-17 01:59N 39°34' E 002°38'0 0.0
2018-May-17 01:29N 39°34' E 002°38'0 0.0
2018-May-17 00:59N 39°34' E 002°38'0 0.0
2018-May-17 00:29N 39°34' E 002°38'0 0.0
2018-May-17 00:00N 39°34' E 002°38'0 0.0
2018-May-16 23:30N 39°34' E 002°38'0 0.0
2018-May-16 22:58N 39°34' E 002°38'0 0.0
2018-May-16 22:29N 39°34' E 002°38'0 0.0
2018-May-16 21:59N 39°34' E 002°38'0 0.0
2018-May-16 21:29N 39°34' E 002°38'0 0.0
2018-May-16 20:58N 39°34' E 002°38'0 0.0
2018-May-16 20:27N 39°34' E 002°38'0 0.0
2018-May-16 19:53N 39°34' E 002°38'0 0.0
2018-May-16 19:26N 39°34' E 002°38'0 0.0
2018-May-16 19:00N 39°34' E 002°38'0 0.0
2018-May-16 18:30N 39°34' E 002°38'0 0.0
2018-May-16 18:00N 39°34' E 002°38'0 0.0
2018-May-16 17:30N 39°34' E 002°38'0 0.0
2018-May-16 16:59N 39°34' E 002°38'0 0.0
2018-May-16 16:30N 39°34' E 002°38'0 0.0
2018-May-16 16:00N 39°34' E 002°38'0 0.0
2018-May-16 15:30N 39°34' E 002°38'0 0.0
2018-May-16 15:00N 39°34' E 002°38'0 0.0
2018-May-16 14:25N 39°34' E 002°38'0 0.0
2018-May-16 13:59N 39°34' E 002°38'0 0.0
2018-May-16 13:29N 39°34' E 002°38'0 0.0
2018-May-16 12:59N 39°34' E 002°38'0 0.0
2018-May-16 12:30N 39°34' E 002°38'0 0.0
2018-May-16 12:00N 39°34' E 002°38'0 0.0
2018-May-16 11:30N 39°34' E 002°38'0 0.0
2018-May-16 11:00N 39°34' E 002°38'0 0.0
2018-May-16 10:30N 39°34' E 002°38'0 0.0
2018-May-16 10:00N 39°34' E 002°38'0 0.0
2018-May-16 09:30N 39°34' E 002°38'0 0.0
2018-May-16 08:59N 39°34' E 002°38'0 0.0
2018-May-16 08:29N 39°34' E 002°38'0 0.0
2018-May-16 07:54N 39°34' E 002°38'0 0.0
2018-May-16 07:30N 39°34' E 002°38'0 0.0
2018-May-16 07:00N 39°34' E 002°38'0 0.0
2018-May-16 06:29N 39°34' E 002°38'0 0.0
2018-May-16 05:59N 39°34' E 002°38'0 0.0
2018-May-16 05:29N 39°34' E 002°38'0 0.0
2018-May-16 04:56N 39°34' E 002°38'0 0.0
2018-May-16 04:29N 39°34' E 002°38'0 0.0
2018-May-16 03:58N 39°34' E 002°38'0 0.0
2018-May-16 03:28N 39°34' E 002°38'0 0.0
2018-May-16 02:59N 39°34' E 002°38'0 0.0
2018-May-16 02:29N 39°34' E 002°38'0 0.0
2018-May-16 01:58N 39°34' E 002°38'0 0.0
2018-May-16 01:28N 39°34' E 002°38'0 0.0
2018-May-16 00:58N 39°34' E 002°38'0 0.0
2018-May-16 00:29N 39°34' E 002°38'0 0.0
2018-May-16 00:00N 39°34' E 002°38'0 0.0
2018-May-15 23:28N 39°34' E 002°38'0 0.0
2018-May-15 22:58N 39°34' E 002°38'0 0.0
2018-May-15 22:29N 39°34' E 002°38'0 0.0
2018-May-15 21:59N 39°34' E 002°38'0 0.0
2018-May-15 21:29N 39°34' E 002°38'0 0.0
2018-May-15 20:58N 39°34' E 002°38'0 0.0
2018-May-15 20:28N 39°34' E 002°38'0 0.0
2018-May-15 19:58N 39°34' E 002°38'0 0.0
2018-May-15 19:27N 39°34' E 002°38'0 0.0
2018-May-15 18:59N 39°34' E 002°38'0 0.0
2018-May-15 18:29N 39°34' E 002°38'0 0.0
2018-May-15 17:58N 39°34' E 002°38'0 0.0
2018-May-15 17:28N 39°34' E 002°38'0 0.0
2018-May-15 16:59N 39°34' E 002°38'0 0.0
2018-May-15 16:30N 39°34' E 002°38'0 0.0
2018-May-15 15:58N 39°34' E 002°38'0 0.0
2018-May-15 15:29N 39°34' E 002°38'0 0.0
2018-May-15 14:59N 39°34' E 002°38'0 0.0
2018-May-15 14:30N 39°34' E 002°38'0 0.0
2018-May-15 14:00N 39°34' E 002°38'0 0.0
2018-May-15 13:30N 39°34' E 002°38'0 0.0
2018-May-15 12:58N 39°34' E 002°38'0 0.0
2018-May-15 12:29N 39°34' E 002°38'0 0.0
2018-May-15 11:58N 39°34' E 002°38'0 0.0
2018-May-15 11:30N 39°34' E 002°38'0 0.0
2018-May-15 11:00N 39°34' E 002°38'0 0.0
2018-May-15 10:30N 39°34' E 002°38'0 0.0
2018-May-15 09:59N 39°34' E 002°38'0 0.0
2018-May-15 09:29N 39°34' E 002°38'0 0.0
2018-May-15 08:59N 39°34' E 002°38'0 0.0
2018-May-15 08:30N 39°34' E 002°38'0 0.0
2018-May-15 08:00N 39°34' E 002°38'0 0.0
2018-May-15 07:30N 39°34' E 002°38'0 0.0
2018-May-15 06:59N 39°34' E 002°38'0 0.0
2018-May-15 06:30N 39°34' E 002°38'0 0.0
2018-May-15 05:58N 39°34' E 002°38'0 0.0
2018-May-15 05:30N 39°34' E 002°38'0 0.0
2018-May-15 04:58N 39°34' E 002°38'0 0.0
2018-May-15 04:29N 39°34' E 002°38'0 0.0
2018-May-15 03:59N 39°34' E 002°38'0 0.0
2018-May-15 03:28N 39°34' E 002°38'0 0.0
2018-May-15 02:58N 39°34' E 002°38'0 0.0
2018-May-15 02:29N 39°34' E 002°38'0 0.0
2018-May-15 01:57N 39°34' E 002°38'0 0.0
2018-May-15 01:28N 39°34' E 002°38'0 0.0
2018-May-15 00:58N 39°34' E 002°38'0 0.0
2018-May-15 00:29N 39°34' E 002°38'0 0.0
2018-May-14 23:54N 39°34' E 002°38'0 0.0
2018-May-14 23:29N 39°34' E 002°38'0 0.0
2018-May-14 23:00N 39°34' E 002°38'0 0.0
2018-May-14 22:30N 39°34' E 002°38'0 0.0
2018-May-14 22:00N 39°34' E 002°38'0 0.0
2018-May-14 21:29N 39°34' E 002°38'0 0.0
2018-May-14 20:59N 39°34' E 002°38'0 0.0
2018-May-14 20:28N 39°34' E 002°38'0 0.0
2018-May-14 19:59N 39°34' E 002°38'0 0.0
2018-May-14 19:28N 39°34' E 002°38'0 0.0
2018-May-14 18:59N 39°34' E 002°38'0 0.0
2018-May-14 18:24N 39°34' E 002°38'0 0.0
2018-May-14 17:55N 39°34' E 002°38'0 0.0
2018-May-14 17:28N 39°34' E 002°38'0 0.0
2018-May-14 16:59N 39°34' E 002°38'0 0.0
2018-May-14 16:30N 39°34' E 002°38'0 0.0
2018-May-14 16:00N 39°34' E 002°38'0 0.0
2018-May-14 15:30N 39°34' E 002°38'0 0.0
2018-May-14 14:57N 39°34' E 002°38'0 0.0
2018-May-14 14:29N 39°34' E 002°38'0 0.0
2018-May-14 13:56N 39°34' E 002°38'0 0.0
2018-May-14 13:28N 39°34' E 002°38'0 0.0
2018-May-14 12:59N 39°34' E 002°38'0 0.0
2018-May-14 12:30N 39°34' E 002°38'0 0.0
2018-May-14 11:54N 39°34' E 002°38'0 0.0
2018-May-14 11:29N 39°34' E 002°38'0 0.0
2018-May-14 10:58N 39°34' E 002°38'0 0.0
2018-May-14 10:28N 39°34' E 002°38'0 0.0
2018-May-14 09:57N 39°34' E 002°38'0 0.0
2018-May-14 09:30N 39°34' E 002°38'0 0.0
2018-May-14 08:59N 39°34' E 002°38'0 0.0
2018-May-14 08:28N 39°34' E 002°38'0 0.0
2018-May-14 07:58N 39°34' E 002°38'0 0.0
2018-May-14 07:28N 39°34' E 002°38'0 0.0
2018-May-14 07:00N 39°34' E 002°38'0 0.0
2018-May-14 06:28N 39°34' E 002°38'0 0.0
2018-May-14 05:58N 39°34' E 002°38'0 0.0
2018-May-14 05:28N 39°34' E 002°38'0 0.0
2018-May-14 04:58N 39°34' E 002°38'0 0.0
2018-May-14 04:28N 39°34' E 002°38'0 0.0
2018-May-14 03:58N 39°34' E 002°38'0 0.0
2018-May-14 03:25N 39°34' E 002°38'0 0.0
2018-May-14 02:58N 39°34' E 002°38'0 0.0
2018-May-14 02:30N 39°34' E 002°38'0 0.0
2018-May-14 01:57N 39°34' E 002°38'0 0.0
2018-May-14 01:30N 39°34' E 002°38'0 0.0
2018-May-14 00:59N 39°34' E 002°38'0 0.0
2018-May-14 00:29N 39°34' E 002°38'0 0.0
2018-May-13 23:59N 39°34' E 002°38'0 0.0
2018-May-13 23:29N 39°34' E 002°38'0 0.0
2018-May-13 23:00N 39°34' E 002°38'0 0.0
2018-May-13 22:30N 39°34' E 002°38'0 0.0
2018-May-13 21:58N 39°34' E 002°38'0 0.0
2018-May-13 21:28N 39°34' E 002°38'0 0.0
2018-May-13 20:58N 39°34' E 002°38'0 0.0
2018-May-13 20:28N 39°34' E 002°38'0 0.0
2018-May-13 19:58N 39°34' E 002°38'0 0.0
2018-May-13 19:29N 39°34' E 002°38'0 0.0
2018-May-13 18:59N 39°34' E 002°38'0 0.0
2018-May-13 18:29N 39°34' E 002°38'0 0.0
2018-May-13 17:59N 39°34' E 002°38'0 0.0
2018-May-13 17:30N 39°34' E 002°38'0 0.0
2018-May-13 17:00N 39°34' E 002°38'0 0.0
2018-May-13 16:30N 39°34' E 002°38'0 0.0
2018-May-13 15:56N 39°34' E 002°38'0 0.0
2018-May-13 15:26N 39°34' E 002°38'0 0.0
2018-May-13 15:00N 39°34' E 002°38'0 0.0
2018-May-13 14:28N 39°34' E 002°38'0 0.0
2018-May-13 13:58N 39°34' E 002°38'0 0.0
2018-May-13 13:28N 39°34' E 002°38'0 0.0
2018-May-13 12:58N 39°34' E 002°38'0 0.0
2018-May-13 12:28N 39°34' E 002°38'0 0.0
2018-May-13 11:58N 39°34' E 002°38'0 0.0
2018-May-13 11:28N 39°34' E 002°38'0 0.0
2018-May-13 11:00N 39°34' E 002°38'0 0.0
2018-May-13 10:29N 39°34' E 002°38'0 0.0
2018-May-13 09:59N 39°34' E 002°38'0 0.0
2018-May-13 09:28N 39°34' E 002°38'0 0.0
2018-May-13 08:58N 39°34' E 002°38'0 0.0
2018-May-13 08:25N 39°34' E 002°38'0 0.0
2018-May-13 07:58N 39°34' E 002°38'0 0.0
2018-May-13 07:28N 39°34' E 002°38'0 0.0
2018-May-13 06:58N 39°34' E 002°38'0 0.0
2018-May-13 06:28N 39°34' E 002°38'0 0.0
2018-May-13 05:59N 39°34' E 002°38'0 0.0
2018-May-13 05:29N 39°34' E 002°38'0 0.0
2018-May-13 05:00N 39°34' E 002°38'0 0.0
2018-May-13 04:30N 39°34' E 002°38'0 0.0
2018-May-13 04:00N 39°34' E 002°38'0 0.0
2018-May-13 03:30N 39°34' E 002°38'0 0.0
2018-May-13 03:00N 39°34' E 002°38'0 0.0
2018-May-13 02:30N 39°34' E 002°38'0 0.0
2018-May-13 01:55N 39°34' E 002°38'0 0.0
2018-May-13 01:28N 39°34' E 002°38'0 0.0
2018-May-13 00:58N 39°34' E 002°38'0 0.0
2018-May-13 00:30N 39°34' E 002°38'0 0.0
2018-May-12 23:58N 39°34' E 002°38'0 0.0
2018-May-12 23:28N 39°34' E 002°38'0 0.0
2018-May-12 22:58N 39°34' E 002°38'0 0.0
2018-May-12 22:30N 39°34' E 002°38'0 0.0
2018-May-12 22:00N 39°34' E 002°38'0 0.0
2018-May-12 21:30N 39°34' E 002°38'0 0.0
2018-May-12 21:00N 39°34' E 002°38'0 0.0
2018-May-12 20:30N 39°34' E 002°38'0 0.0
2018-May-12 20:00N 39°34' E 002°38'0 0.0
2018-May-12 19:29N 39°34' E 002°38'0 0.0
2018-May-12 18:58N 39°34' E 002°38'0 0.0
2018-May-12 18:28N 39°34' E 002°38'0 0.0
2018-May-12 17:58N 39°34' E 002°38'0 0.0
2018-May-12 17:28N 39°34' E 002°38'0 0.0
2018-May-12 16:58N 39°34' E 002°38'0 0.0
2018-May-12 16:28N 39°34' E 002°38'0 0.0
2018-May-12 15:54N 39°34' E 002°38'0 0.0
2018-May-12 15:30N 39°34' E 002°38'0 0.0
2018-May-12 14:58N 39°34' E 002°38'0 0.0
2018-May-12 14:30N 39°34' E 002°38'0 0.0
2018-May-12 13:58N 39°34' E 002°38'0 0.0
2018-May-12 13:28N 39°34' E 002°38'0 0.0
2018-May-12 12:59N 39°34' E 002°38'0 0.0
2018-May-12 12:29N 39°34' E 002°38'0 0.0
2018-May-12 11:59N 39°34' E 002°38'0 0.0
2018-May-12 11:29N 39°34' E 002°38'0 0.0
2018-May-12 10:58N 39°34' E 002°38'0 0.0
2018-May-12 10:28N 39°34' E 002°38'0 0.0
2018-May-12 09:58N 39°34' E 002°38'0 0.0
2018-May-12 09:28N 39°34' E 002°38'0 0.0
2018-May-12 09:00N 39°34' E 002°38'0 0.0
2018-May-12 08:29N 39°34' E 002°38'0 0.0
2018-May-12 07:59N 39°34' E 002°38'0 0.0
2018-May-12 07:28N 39°34' E 002°38'0 0.0
2018-May-12 06:58N 39°34' E 002°38'0 0.0
2018-May-12 06:28N 39°34' E 002°38'0 0.0
2018-May-12 06:00N 39°34' E 002°38'0 0.0
2018-May-12 05:29N 39°34' E 002°38'0 0.0
2018-May-12 04:59N 39°34' E 002°38'0 0.0
2018-May-12 04:29N 39°34' E 002°38'0 0.0
2018-May-12 03:58N 39°34' E 002°38'0 0.0
2018-May-12 03:25N 39°34' E 002°38'0 0.0
2018-May-12 02:58N 39°34' E 002°38'0 0.0
2018-May-12 02:26N 39°34' E 002°38'0 0.0
2018-May-12 02:00N 39°34' E 002°38'0 0.0
2018-May-12 01:28N 39°34' E 002°38'0 0.0
2018-May-12 00:58N 39°34' E 002°38'0 0.0
2018-May-12 00:29N 39°34' E 002°38'0 0.0
2018-May-11 23:58N 39°34' E 002°38'0 0.0
2018-May-11 23:23N 39°34' E 002°38'0 0.0
2018-May-11 22:59N 39°34' E 002°38'0 0.0
2018-May-11 22:29N 39°34' E 002°38'0 0.0
2018-May-11 21:58N 39°34' E 002°38'0 0.0
2018-May-11 21:30N 39°34' E 002°38'0 0.0
2018-May-11 21:00N 39°34' E 002°38'0 0.0
2018-May-11 20:30N 39°34' E 002°38'0 0.0
2018-May-11 19:58N 39°34' E 002°38'0 0.0
2018-May-11 19:29N 39°34' E 002°38'  
Track history (hours):
 
Tides and Currents Weather Stations Pressure Air Temp Water Temp Dewpoint Dewpoint Depression Visibility Wind Speed Wind Dir Waves Ship Positions

S/y Surama

Last reported at 2018-May-21 19:24 UTC. Time now 2018-May-22 18:01 UTC.
Position N 41°24' E 002°14'.

Length 40 m; draft 3 m.

Type: Sailing vessel. MMSI: 319073400.

Date/timePositionNaut miles runAvg speedWind from/ knotsBaromVisibWave heightAir tempDewpointWater temp
2018-May-21 19:24N 41°24' E 002°14'4 9.3
2018-May-21 19:00N 41°21' E 002°14'510.0
2018-May-21 18:30N 41°17' E 002°10'510.8
2018-May-21 18:00N 41°15' E 002°03'510.7
2018-May-21 17:30N 41°15' E 001°56'1 1.9
2018-May-21 16:46N 41°15' E 001°54'0 0.0
2018-May-21 16:23N 41°15' E 001°54'0 0.0
2018-May-21 15:57N 41°15' E 001°54'0 0.0
2018-May-21 15:28N 41°15' E 001°54'0 0.0
2018-May-21 14:49N 41°15' E 001°54'0 0.0
2018-May-21 14:28N 41°15' E 001°54'0 0.0
2018-May-21 13:52N 41°15' E 001°54'0 0.0
2018-May-21 13:25N 41°15' E 001°54'0 0.0
2018-May-21 07:39N 41°15' E 001°54'0 0.0
2018-May-21 07:27N 41°15' E 001°54'0 0.0
2018-May-21 06:57N 41°15' E 001°54'0 0.0
2018-May-21 06:29N 41°15' E 001°54'0 0.0
2018-May-21 05:01N 41°15' E 001°54'0 0.1
2018-May-21 04:54N 41°15' E 001°54'0 0.0
2018-May-21 03:52N 41°15' E 001°54'0 0.0
2018-May-21 03:17N 41°15' E 001°54'0 0.0
2018-May-21 02:51N 41°15' E 001°54'0 0.0
2018-May-21 02:27N 41°15' E 001°54'0 0.0
2018-May-21 01:57N 41°15' E 001°54'0 0.0
2018-May-21 01:14N 41°15' E 001°54'0 0.0
2018-May-21 00:59N 41°15' E 001°54'0 0.0
2018-May-21 00:27N 41°15' E 001°54'0 0.0
2018-May-21 00:00N 41°15' E 001°54'0 0.0
2018-May-20 23:30N 41°15' E 001°54'0 0.0
2018-May-20 22:57N 41°15' E 001°54'0 0.0
2018-May-20 22:27N 41°15' E 001°54'0 0.0
2018-May-20 21:53N 41°15' E 001°54'0 0.0
2018-May-20 21:28N 41°15' E 001°54'0 0.0
2018-May-20 20:58N 41°15' E 001°54'0 0.0
2018-May-20 20:28N 41°15' E 001°54'0 0.0
2018-May-20 19:58N 41°15' E 001°54'0 0.0
2018-May-20 19:19N 41°15' E 001°54'0 0.0
2018-May-20 18:54N 41°15' E 001°54'0 0.0
2018-May-20 18:28N 41°15' E 001°54'0 0.0
2018-May-20 17:53N 41°15' E 001°54'0 0.0
2018-May-20 17:25N 41°15' E 001°54'0 0.0
2018-May-20 16:55N 41°15' E 001°54'0 0.0
2018-May-20 16:09N 41°15' E 001°54'0 0.1
2018-May-20 15:57N 41°15' E 001°54'0 0.0
2018-May-20 15:30N 41°15' E 001°54'0 0.0
2018-May-20 10:35N 41°15' E 001°55'0 3.9
2018-May-20 10:30N 41°15' E 001°55'4 7.5
2018-May-20 10:00N 41°14' E 001°60'4 8.8
2018-May-20 09:30N 41°15' E 002°06'1 2.3
2018-May-20 09:00N 41°15' E 002°07'0 0.2
2018-May-20 08:30N 41°14' E 002°07'1 1.5
2018-May-20 08:00N 41°14' E 002°08'1 2.7
2018-May-20 07:30N 41°14' E 002°10'2 3.6
2018-May-20 07:00N 41°12' E 002°11'2 4.1
2018-May-20 06:30N 41°10' E 002°12'2 4.7
2018-May-20 06:00N 41°08' E 002°13'4 7.6
2018-May-20 05:28N 41°05' E 002°16'97 9.8
2018-May-19 19:34N 39°28' E 002°26'210.7
2018-May-19 19:20N 39°27' E 002°29'310.0
2018-May-19 19:00N 39°28' E 002°33'510.3
2018-May-19 18:30N 39°32' E 002°38'2 3.6
2018-May-19 17:58N 39°34' E 002°38'0 0.0
2018-May-19 17:30N 39°34' E 002°38'0 0.0
2018-May-19 17:00N 39°34' E 002°38'0 0.6
2018-May-19 16:28N 39°34' E 002°38'0 0.0
2018-May-19 15:58N 39°34' E 002°38'0 0.0
2018-May-19 15:29N 39°34' E 002°38'0 0.0
2018-May-19 14:58N 39°34' E 002°38'0 0.0
2018-May-19 14:28N 39°34' E 002°38'0 0.0
2018-May-19 13:58N 39°34' E 002°38'0 0.0
2018-May-19 13:29N 39°34' E 002°38'0 0.0
2018-May-19 12:59N 39°34' E 002°38'0 0.0
2018-May-19 12:28N 39°34' E 002°38'0 0.0
2018-May-19 11:58N 39°34' E 002°38'0 0.0
2018-May-19 11:29N 39°34' E 002°38'0 0.0
2018-May-19 10:59N 39°34' E 002°38'0 0.0
2018-May-19 10:30N 39°34' E 002°38'0 0.0
2018-May-19 10:00N 39°34' E 002°38'0 0.0
2018-May-19 09:30N 39°34' E 002°38'0 0.0
2018-May-19 09:00N 39°34' E 002°38'0 0.0
2018-May-19 08:29N 39°34' E 002°38'0 0.0
2018-May-19 08:00N 39°34' E 002°38'0 0.0
2018-May-19 07:30N 39°34' E 002°38'0 0.0
2018-May-19 07:00N 39°34' E 002°38'0 0.0
2018-May-19 06:29N 39°34' E 002°38'0 0.0
2018-May-19 05:59N 39°34' E 002°38'0 0.0
2018-May-19 05:29N 39°34' E 002°38'0 0.0
2018-May-19 04:59N 39°34' E 002°38'0 0.0
2018-May-19 04:29N 39°34' E 002°38'0 0.0
2018-May-19 03:59N 39°34' E 002°38'0 0.0
2018-May-19 03:24N 39°34' E 002°38'0 0.0
2018-May-19 02:58N 39°34' E 002°38'0 0.0
2018-May-19 02:30N 39°34' E 002°38'0 0.0
2018-May-19 01:58N 39°34' E 002°38'0 0.0
2018-May-19 01:27N 39°34' E 002°38'0 0.0
2018-May-19 00:59N 39°34' E 002°38'0 0.0
2018-May-19 00:29N 39°34' E 002°38'0 0.0
2018-May-18 23:58N 39°34' E 002°38'0 0.0
2018-May-18 23:28N 39°34' E 002°38'0 0.0
2018-May-18 22:58N 39°34' E 002°38'0 0.0
2018-May-18 22:28N 39°34' E 002°38'0 0.0
2018-May-18 21:58N 39°34' E 002°38'0 0.0
2018-May-18 21:30N 39°34' E 002°38'0 0.0
2018-May-18 20:58N 39°34' E 002°38'0 0.0
2018-May-18 20:28N 39°34' E 002°38'0 0.0
2018-May-18 19:59N 39°34' E 002°38'0 0.0
2018-May-18 19:23N 39°34' E 002°38'0 0.0
2018-May-18 18:59N 39°34' E 002°38'0 0.0
2018-May-18 18:29N 39°34' E 002°38'0 0.0
2018-May-18 17:55N 39°34' E 002°38'0 0.0
2018-May-18 17:28N 39°34' E 002°38'0 0.0
2018-May-18 16:58N 39°34' E 002°38'0 0.0
2018-May-18 16:28N 39°34' E 002°38'0 0.0
2018-May-18 15:58N 39°34' E 002°38'0 0.0
2018-May-18 15:23N 39°34' E 002°38'0 0.0
2018-May-18 14:54N 39°34' E 002°38'0 0.0
2018-May-18 14:30N 39°34' E 002°38'0 0.0
2018-May-18 14:00N 39°34' E 002°38'0 0.0
2018-May-18 13:29N 39°34' E 002°38'0 0.0
2018-May-18 12:59N 39°34' E 002°38'0 0.0
2018-May-18 12:27N 39°34' E 002°38'0 0.0
2018-May-18 11:58N 39°34' E 002°38'0 0.0
2018-May-18 11:30N 39°34' E 002°38'0 0.0
2018-May-18 10:59N 39°34' E 002°38'0 0.0
2018-May-18 10:28N 39°34' E 002°38'0 0.0
2018-May-18 09:57N 39°34' E 002°38'0 0.0
2018-May-18 09:30N 39°34' E 002°38'0 0.0
2018-May-18 09:00N 39°34' E 002°38'0 0.0
2018-May-18 08:30N 39°34' E 002°38'0 0.0
2018-May-18 07:58N 39°34' E 002°38'0 0.0
2018-May-18 07:28N 39°34' E 002°38'0 0.0
2018-May-18 06:58N 39°34' E 002°38'0 0.0
2018-May-18 06:29N 39°34' E 002°38'0 0.0
2018-May-18 05:59N 39°34' E 002°38'0 0.0
2018-May-18 05:28N 39°34' E 002°38'0 0.0
2018-May-18 04:53N 39°34' E 002°38'0 0.0
2018-May-18 04:27N 39°34' E 002°38'0 0.0
2018-May-18 04:00N 39°34' E 002°38'0 0.0
2018-May-18 03:25N 39°34' E 002°38'0 0.0
2018-May-18 02:58N 39°34' E 002°38'0 0.0
2018-May-18 02:29N 39°34' E 002°38'0 0.0
2018-May-18 02:00N 39°34' E 002°38'0 0.0
2018-May-18 01:30N 39°34' E 002°38'0 0.0
2018-May-18 01:00N 39°34' E 002°38'0 0.0
2018-May-18 00:30N 39°34' E 002°38'0 0.0
2018-May-17 23:57N 39°34' E 002°38'0 0.0
2018-May-17 23:30N 39°34' E 002°38'0 0.0
2018-May-17 23:00N 39°34' E 002°38'0 0.0
2018-May-17 22:28N 39°34' E 002°38'0 0.0
2018-May-17 22:00N 39°34' E 002°38'0 0.0
2018-May-17 21:28N 39°34' E 002°38'0 0.0
2018-May-17 20:59N 39°34' E 002°38'0 0.0
2018-May-17 20:30N 39°34' E 002°38'0 0.0
2018-May-17 19:58N 39°34' E 002°38'0 0.0
2018-May-17 19:28N 39°34' E 002°38'0 0.0
2018-May-17 18:58N 39°34' E 002°38'0 0.0
2018-May-17 18:29N 39°34' E 002°38'0 0.0
2018-May-17 17:57N 39°34' E 002°38'0 0.0
2018-May-17 17:30N 39°34' E 002°38'0 0.0
2018-May-17 16:58N 39°34' E 002°38'0 0.0
2018-May-17 16:30N 39°34' E 002°38'0 0.0
2018-May-17 16:00N 39°34' E 002°38'0 0.0
2018-May-17 15:29N 39°34' E 002°38'0 0.0
2018-May-17 14:54N 39°34' E 002°38'0 0.0
2018-May-17 14:28N 39°34' E 002°38'0 0.0
2018-May-17 13:58N 39°34' E 002°38'0 0.0
2018-May-17 13:26N 39°34' E 002°38'0 0.0
2018-May-17 12:59N 39°34' E 002°38'0 0.0
2018-May-17 12:29N 39°34' E 002°38'0 0.0
2018-May-17 11:59N 39°34' E 002°38'0 0.0
2018-May-17 11:29N 39°34' E 002°38'0 0.0
2018-May-17 10:59N 39°34' E 002°38'0 0.0
2018-May-17 10:28N 39°34' E 002°38'0 0.0
2018-May-17 09:53N 39°34' E 002°38'0 0.0
2018-May-17 09:26N 39°34' E 002°38'0 0.0
2018-May-17 08:58N 39°34' E 002°38'0 0.0
2018-May-17 08:20N 39°34' E 002°38'0 0.0
2018-May-17 07:55N 39°34' E 002°38'0 0.0
2018-May-17 07:28N 39°34' E 002°38'0 0.0
2018-May-17 07:00N 39°34' E 002°38'0 0.0
2018-May-17 06:28N 39°34' E 002°38'0 0.0
2018-May-17 05:58N 39°34' E 002°38'0 0.0
2018-May-17 05:29N 39°34' E 002°38'0 0.0
2018-May-17 04:59N 39°34' E 002°38'0 0.0
2018-May-17 04:29N 39°34' E 002°38'0 0.0
2018-May-17 03:58N 39°34' E 002°38'0 0.0
2018-May-17 03:30N 39°34' E 002°38'0 0.0
2018-May-17 03:00N 39°34' E 002°38'0 0.0
2018-May-17 02:29N 39°34' E 002°38'0 0.0
2018-May-17 01:59N 39°34' E 002°38'0 0.0
2018-May-17 01:29N 39°34' E 002°38'0 0.0
2018-May-17 00:59N 39°34' E 002°38'0 0.0
2018-May-17 00:29N 39°34' E 002°38'0 0.0
2018-May-17 00:00N 39°34' E 002°38'0 0.0
2018-May-16 23:30N 39°34' E 002°38'0 0.0
2018-May-16 22:58N 39°34' E 002°38'0 0.0
2018-May-16 22:29N 39°34' E 002°38'0 0.0
2018-May-16 21:59N 39°34' E 002°38'0 0.0
2018-May-16 21:29N 39°34' E 002°38'0 0.0
2018-May-16 20:58N 39°34' E 002°38'0 0.0
2018-May-16 20:27N 39°34' E 002°38'0 0.0
2018-May-16 19:53N 39°34' E 002°38'0 0.0
2018-May-16 19:26N 39°34' E 002°38'0 0.0
2018-May-16 19:00N 39°34' E 002°38'0 0.0
2018-May-16 18:30N 39°34' E 002°38'0 0.0
2018-May-16 18:00N 39°34' E 002°38'0 0.0
2018-May-16 17:30N 39°34' E 002°38'0 0.0
2018-May-16 16:59N 39°34' E 002°38'0 0.0
2018-May-16 16:30N 39°34' E 002°38'0 0.0
2018-May-16 16:00N 39°34' E 002°38'0 0.0
2018-May-16 15:30N 39°34' E 002°38'0 0.0
2018-May-16 15:00N 39°34' E 002°38'0 0.0
2018-May-16 14:25N 39°34' E 002°38'0 0.0
2018-May-16 13:59N 39°34' E 002°38'0 0.0
2018-May-16 13:29N 39°34' E 002°38'0 0.0
2018-May-16 12:59N 39°34' E 002°38'0 0.0
2018-May-16 12:30N 39°34' E 002°38'0 0.0
2018-May-16 12:00N 39°34' E 002°38'0 0.0
2018-May-16 11:30N 39°34' E 002°38'0 0.0
2018-May-16 11:00N 39°34' E 002°38'0 0.0
2018-May-16 10:30N 39°34' E 002°38'0 0.0
2018-May-16 10:00N 39°34' E 002°38'0 0.0
2018-May-16 09:30N 39°34' E 002°38'0 0.0
2018-May-16 08:59N 39°34' E 002°38'0 0.0
2018-May-16 08:29N 39°34' E 002°38'0 0.0
2018-May-16 07:54N 39°34' E 002°38'0 0.0
2018-May-16 07:30N 39°34' E 002°38'0 0.0
2018-May-16 07:00N 39°34' E 002°38'0 0.0
2018-May-16 06:29N 39°34' E 002°38'0 0.0
2018-May-16 05:59N 39°34' E 002°38'0 0.0
2018-May-16 05:29N 39°34' E 002°38'0 0.0
2018-May-16 04:56N 39°34' E 002°38'0 0.0
2018-May-16 04:29N 39°34' E 002°38'0 0.0
2018-May-16 03:58N 39°34' E 002°38'0 0.0
2018-May-16 03:28N 39°34' E 002°38'0 0.0
2018-May-16 02:59N 39°34' E 002°38'0 0.0
2018-May-16 02:29N 39°34' E 002°38'0 0.0
2018-May-16 01:58N 39°34' E 002°38'0 0.0
2018-May-16 01:28N 39°34' E 002°38'0 0.0
2018-May-16 00:58N 39°34' E 002°38'0 0.0
2018-May-16 00:29N 39°34' E 002°38'0 0.0
2018-May-16 00:00N 39°34' E 002°38'0 0.0
2018-May-15 23:28N 39°34' E 002°38'0 0.0
2018-May-15 22:58N 39°34' E 002°38'0 0.0
2018-May-15 22:29N 39°34' E 002°38'0 0.0
2018-May-15 21:59N 39°34' E 002°38'0 0.0
2018-May-15 21:29N 39°34' E 002°38'0 0.0
2018-May-15 20:58N 39°34' E 002°38'0 0.0
2018-May-15 20:28N 39°34' E 002°38'0 0.0
2018-May-15 19:58N 39°34' E 002°38'0 0.0
2018-May-15 19:27N 39°34' E 002°38'0 0.0
2018-May-15 18:59N 39°34' E 002°38'0 0.0
2018-May-15 18:29N 39°34' E 002°38'0 0.0
2018-May-15 17:58N 39°34' E 002°38'0 0.0
2018-May-15 17:28N 39°34' E 002°38'0 0.0
2018-May-15 16:59N 39°34' E 002°38'0 0.0
2018-May-15 16:30N 39°34' E 002°38'0 0.0
2018-May-15 15:58N 39°34' E 002°38'0 0.0
2018-May-15 15:29N 39°34' E 002°38'0 0.0
2018-May-15 14:59N 39°34' E 002°38'0 0.0
2018-May-15 14:30N 39°34' E 002°38'0 0.0
2018-May-15 14:00N 39°34' E 002°38'0 0.0
2018-May-15 13:30N 39°34' E 002°38'0 0.0
2018-May-15 12:58N 39°34' E 002°38'0 0.0
2018-May-15 12:29N 39°34' E 002°38'0 0.0
2018-May-15 11:58N 39°34' E 002°38'0 0.0
2018-May-15 11:30N 39°34' E 002°38'0 0.0
2018-May-15 11:00N 39°34' E 002°38'0 0.0
2018-May-15 10:30N 39°34' E 002°38'0 0.0
2018-May-15 09:59N 39°34' E 002°38'0 0.0
2018-May-15 09:29N 39°34' E 002°38'0 0.0
2018-May-15 08:59N 39°34' E 002°38'0 0.0
2018-May-15 08:30N 39°34' E 002°38'0 0.0
2018-May-15 08:00N 39°34' E 002°38'0 0.0
2018-May-15 07:30N 39°34' E 002°38'0 0.0
2018-May-15 06:59N 39°34' E 002°38'0 0.0
2018-May-15 06:30N 39°34' E 002°38'0 0.0
2018-May-15 05:58N 39°34' E 002°38'0 0.0
2018-May-15 05:30N 39°34' E 002°38'0 0.0
2018-May-15 04:58N 39°34' E 002°38'0 0.0
2018-May-15 04:29N 39°34' E 002°38'0 0.0
2018-May-15 03:59N 39°34' E 002°38'0 0.0
2018-May-15 03:28N 39°34' E 002°38'0 0.0
2018-May-15 02:58N 39°34' E 002°38'0 0.0
2018-May-15 02:29N 39°34' E 002°38'0 0.0
2018-May-15 01:57N 39°34' E 002°38'0 0.0
2018-May-15 01:28N 39°34' E 002°38'0 0.0
2018-May-15 00:58N 39°34' E 002°38'0 0.0
2018-May-15 00:29N 39°34' E 002°38'0 0.0
2018-May-14 23:54N 39°34' E 002°38'0 0.0
2018-May-14 23:29N 39°34' E 002°38'0 0.0
2018-May-14 23:00N 39°34' E 002°38'0 0.0
2018-May-14 22:30N 39°34' E 002°38'0 0.0
2018-May-14 22:00N 39°34' E 002°38'0 0.0
2018-May-14 21:29N 39°34' E 002°38'0 0.0
2018-May-14 20:59N 39°34' E 002°38'0 0.0
2018-May-14 20:28N 39°34' E 002°38'0 0.0
2018-May-14 19:59N 39°34' E 002°38'0 0.0
2018-May-14 19:28N 39°34' E 002°38'0 0.0
2018-May-14 18:59N 39°34' E 002°38'0 0.0
2018-May-14 18:24N 39°34' E 002°38'0 0.0
2018-May-14 17:55N 39°34' E 002°38'0 0.0
2018-May-14 17:28N 39°34' E 002°38'0 0.0
2018-May-14 16:59N 39°34' E 002°38'0 0.0
2018-May-14 16:30N 39°34' E 002°38'0 0.0
2018-May-14 16:00N 39°34' E 002°38'0 0.0
2018-May-14 15:30N 39°34' E 002°38'0 0.0
2018-May-14 14:57N 39°34' E 002°38'0 0.0
2018-May-14 14:29N 39°34' E 002°38'0 0.0
2018-May-14 13:56N 39°34' E 002°38'0 0.0
2018-May-14 13:28N 39°34' E 002°38'0 0.0
2018-May-14 12:59N 39°34' E 002°38'0 0.0
2018-May-14 12:30N 39°34' E 002°38'0 0.0
2018-May-14 11:54N 39°34' E 002°38'0 0.0
2018-May-14 11:29N 39°34' E 002°38'0 0.0
2018-May-14 10:58N 39°34' E 002°38'0 0.0
2018-May-14 10:28N 39°34' E 002°38'0 0.0
2018-May-14 09:57N 39°34' E 002°38'0 0.0
2018-May-14 09:30N 39°34' E 002°38'0 0.0
2018-May-14 08:59N 39°34' E 002°38'0 0.0
2018-May-14 08:28N 39°34' E 002°38'0 0.0
2018-May-14 07:58N 39°34' E 002°38'0 0.0
2018-May-14 07:28N 39°34' E 002°38'0 0.0
2018-May-14 07:00N 39°34' E 002°38'0 0.0
2018-May-14 06:28N 39°34' E 002°38'0 0.0
2018-May-14 05:58N 39°34' E 002°38'0 0.0
2018-May-14 05:28N 39°34' E 002°38'0 0.0
2018-May-14 04:58N 39°34' E 002°38'0 0.0
2018-May-14 04:28N 39°34' E 002°38'0 0.0
2018-May-14 03:58N 39°34' E 002°38'0 0.0
2018-May-14 03:25N 39°34' E 002°38'0 0.0
2018-May-14 02:58N 39°34' E 002°38'0 0.0
2018-May-14 02:30N 39°34' E 002°38'0 0.0
2018-May-14 01:57N 39°34' E 002°38'0 0.0
2018-May-14 01:30N 39°34' E 002°38'0 0.0
2018-May-14 00:59N 39°34' E 002°38'0 0.0
2018-May-14 00:29N 39°34' E 002°38'0 0.0
2018-May-13 23:59N 39°34' E 002°38'0 0.0
2018-May-13 23:29N 39°34' E 002°38'0 0.0
2018-May-13 23:00N 39°34' E 002°38'0 0.0
2018-May-13 22:30N 39°34' E 002°38'0 0.0
2018-May-13 21:58N 39°34' E 002°38'0 0.0
2018-May-13 21:28N 39°34' E 002°38'0 0.0
2018-May-13 20:58N 39°34' E 002°38'0 0.0
2018-May-13 20:28N 39°34' E 002°38'0 0.0
2018-May-13 19:58N 39°34' E 002°38'0 0.0
2018-May-13 19:29N 39°34' E 002°38'0 0.0
2018-May-13 18:59N 39°34' E 002°38'0 0.0
2018-May-13 18:29N 39°34' E 002°38'0 0.0
2018-May-13 17:59N 39°34' E 002°38'0 0.0
2018-May-13 17:30N 39°34' E 002°38'0 0.0
2018-May-13 17:00N 39°34' E 002°38'0 0.0
2018-May-13 16:30N 39°34' E 002°38'0 0.0
2018-May-13 15:56N 39°34' E 002°38'0 0.0
2018-May-13 15:26N 39°34' E 002°38'0 0.0
2018-May-13 15:00N 39°34' E 002°38'0 0.0
2018-May-13 14:28N 39°34' E 002°38'0 0.0
2018-May-13 13:58N 39°34' E 002°38'0 0.0
2018-May-13 13:28N 39°34' E 002°38'0 0.0
2018-May-13 12:58N 39°34' E 002°38'0 0.0
2018-May-13 12:28N 39°34' E 002°38'0 0.0
2018-May-13 11:58N 39°34' E 002°38'0 0.0
2018-May-13 11:28N 39°34' E 002°38'0 0.0
2018-May-13 11:00N 39°34' E 002°38'0 0.0
2018-May-13 10:29N 39°34' E 002°38'0 0.0
2018-May-13 09:59N 39°34' E 002°38'0 0.0
2018-May-13 09:28N 39°34' E 002°38'0 0.0
2018-May-13 08:58N 39°34' E 002°38'0 0.0
2018-May-13 08:25N 39°34' E 002°38'0 0.0
2018-May-13 07:58N 39°34' E 002°38'0 0.0
2018-May-13 07:28N 39°34' E 002°38'0 0.0
2018-May-13 06:58N 39°34' E 002°38'0 0.0
2018-May-13 06:28N 39°34' E 002°38'0 0.0
2018-May-13 05:59N 39°34' E 002°38'0 0.0
2018-May-13 05:29N 39°34' E 002°38'0 0.0
2018-May-13 05:00N 39°34' E 002°38'0 0.0
2018-May-13 04:30N 39°34' E 002°38'0 0.0
2018-May-13 04:00N 39°34' E 002°38'0 0.0
2018-May-13 03:30N 39°34' E 002°38'0 0.0
2018-May-13 03:00N 39°34' E 002°38'0 0.0
2018-May-13 02:30N 39°34' E 002°38'0 0.0
2018-May-13 01:55N 39°34' E 002°38'0 0.0
2018-May-13 01:28N 39°34' E 002°38'0 0.0
2018-May-13 00:58N 39°34' E 002°38'0 0.0
2018-May-13 00:30N 39°34' E 002°38'0 0.0
2018-May-12 23:58N 39°34' E 002°38'0 0.0
2018-May-12 23:28N 39°34' E 002°38'0 0.0
2018-May-12 22:58N 39°34' E 002°38'0 0.0
2018-May-12 22:30N 39°34' E 002°38'0 0.0
2018-May-12 22:00N 39°34' E 002°38'0 0.0
2018-May-12 21:30N 39°34' E 002°38'0 0.0
2018-May-12 21:00N 39°34' E 002°38'0 0.0
2018-May-12 20:30N 39°34' E 002°38'0 0.0
2018-May-12 20:00N 39°34' E 002°38'0 0.0
2018-May-12 19:29N 39°34' E 002°38'0 0.0
2018-May-12 18:58N 39°34' E 002°38'0 0.0
2018-May-12 18:28N 39°34' E 002°38'0 0.0
2018-May-12 17:58N 39°34' E 002°38'0 0.0
2018-May-12 17:28N 39°34' E 002°38'0 0.0
2018-May-12 16:58N 39°34' E 002°38'0 0.0
2018-May-12 16:28N 39°34' E 002°38'0 0.0
2018-May-12 15:54N 39°34' E 002°38'0 0.0
2018-May-12 15:30N 39°34' E 002°38'0 0.0
2018-May-12 14:58N 39°34' E 002°38'0 0.0
2018-May-12 14:30N 39°34' E 002°38'0 0.0
2018-May-12 13:58N 39°34' E 002°38'0 0.0
2018-May-12 13:28N 39°34' E 002°38'0 0.0
2018-May-12 12:59N 39°34' E 002°38'0 0.0
2018-May-12 12:29N 39°34' E 002°38'0 0.0
2018-May-12 11:59N 39°34' E 002°38'0 0.0
2018-May-12 11:29N 39°34' E 002°38'0 0.0
2018-May-12 10:58N 39°34' E 002°38'0 0.0
2018-May-12 10:28N 39°34' E 002°38'0 0.0
2018-May-12 09:58N 39°34' E 002°38'0 0.0
2018-May-12 09:28N 39°34' E 002°38'0 0.0
2018-May-12 09:00N 39°34' E 002°38'0 0.0
2018-May-12 08:29N 39°34' E 002°38'0 0.0
2018-May-12 07:59N 39°34' E 002°38'0 0.0
2018-May-12 07:28N 39°34' E 002°38'0 0.0
2018-May-12 06:58N 39°34' E 002°38'0 0.0
2018-May-12 06:28N 39°34' E 002°38'0 0.0
2018-May-12 06:00N 39°34' E 002°38'0 0.0
2018-May-12 05:29N 39°34' E 002°38'0 0.0
2018-May-12 04:59N 39°34' E 002°38'0 0.0
2018-May-12 04:29N 39°34' E 002°38'0 0.0
2018-May-12 03:58N 39°34' E 002°38'0 0.0
2018-May-12 03:25N 39°34' E 002°38'0 0.0
2018-May-12 02:58N 39°34' E 002°38'0 0.0
2018-May-12 02:26N 39°34' E 002°38'0 0.0
2018-May-12 02:00N 39°34' E 002°38'0 0.0
2018-May-12 01:28N 39°34' E 002°38'0 0.0
2018-May-12 00:58N 39°34' E 002°38'0 0.0
2018-May-12 00:29N 39°34' E 002°38'0 0.0
2018-May-11 23:58N 39°34' E 002°38'0 0.0
2018-May-11 23:23N 39°34' E 002°38'0 0.0
2018-May-11 22:59N 39°34' E 002°38'0 0.0
2018-May-11 22:29N 39°34' E 002°38'0 0.0
2018-May-11 21:58N 39°34' E 002°38'0 0.0
2018-May-11 21:30N 39°34' E 002°38'0 0.0
2018-May-11 21:00N 39°34' E 002°38'0 0.0
2018-May-11 20:30N 39°34' E 002°38'0 0.0
2018-May-11 19:58N 39°34' E 002°38'0 0.0
2018-May-11 19:29N 39°34' E 002°38'  

Dump ship's entire track history